Time;durP1;ratioP1;P1;durP2;ratioP2;P2;SDS_P1;SDS_P2;PMS_P1;PMS_P2;Temp;Humidity;BMP_temperature;BMP_pressure;BME280_temperature;BME280_humidity;BME280_pressure;Samples;Min_cycle;Max_cycle;Signal;HPM_P1;HPM_P2
2022/07/22 00:02:08;;;;;;;5.45;2.60;;;20.60;64.60;;;;;;5158499;27;20049;-71
2022/07/22 00:04:34;;;;;;;3.08;2.70;;;20.60;64.70;;;;;;5156980;27;20174;-71
2022/07/22 00:06:59;;;;;;;2.97;2.65;;;20.60;64.00;;;;;;5158836;27;20050;-70
2022/07/22 00:09:25;;;;;;;4.65;3.10;;;20.60;64.40;;;;;;5157002;27;20139;-71
2022/07/22 00:11:51;;;;;;;5.30;2.80;;;20.60;64.80;;;;;;5158238;27;20391;-70
2022/07/22 00:14:17;;;;;;;4.03;3.08;;;20.60;65.30;;;;;;5158402;27;20023;-77
2022/07/22 00:16:42;;;;;;;4.50;3.38;;;20.60;65.60;;;;;;5158090;27;20050;-78
2022/07/22 00:19:08;;;;;;;4.80;2.55;;;20.60;65.40;;;;;;5156897;27;20494;-70
2022/07/22 00:21:34;;;;;;;10.98;3.75;;;20.50;65.80;;;;;;5157874;27;20089;-70
2022/07/22 00:23:59;;;;;;;4.15;2.65;;;20.40;64.90;;;;;;5158061;27;20456;-70
2022/07/22 00:26:25;;;;;;;8.80;2.95;;;20.40;65.00;;;;;;5158116;27;20486;-78
2022/07/22 00:28:51;;;;;;;3.47;2.97;;;20.40;65.20;;;;;;5157924;27;20057;-70
2022/07/22 00:31:16;;;;;;;7.38;3.35;;;20.30;65.40;;;;;;5157795;27;20488;-78
2022/07/22 00:33:42;;;;;;;5.35;3.00;;;20.30;65.60;;;;;;5157805;27;20014;-70
2022/07/22 00:36:08;;;;;;;2.60;2.40;;;20.30;65.40;;;;;;5148608;27;20031;-77
2022/07/22 00:38:34;;;;;;;9.07;3.47;;;20.30;65.60;;;;;;5135759;27;20434;-70
2022/07/22 00:41:00;;;;;;;3.70;2.78;;;20.30;65.70;;;;;;5136919;27;20019;-71
2022/07/22 00:43:25;;;;;;;3.42;3.13;;;20.20;66.00;;;;;;5136835;27;20425;-72
2022/07/22 00:45:51;;;;;;;4.70;3.38;;;20.20;65.90;;;;;;5136804;27;20074;-69
2022/07/22 00:48:17;;;;;;;5.88;3.50;;;20.20;66.70;;;;;;5136959;27;20023;-70
2022/07/22 00:50:42;;;;;;;8.00;3.63;;;20.20;66.70;;;;;;5135397;27;20034;-71
2022/07/22 00:53:09;;;;;;;7.45;3.22;;;20.10;67.80;;;;;;5136813;27;20485;-69
2022/07/22 00:55:34;;;;;;;5.97;3.08;;;20.10;67.80;;;;;;5136761;27;20023;-71
2022/07/22 00:58:01;;;;;;;7.57;3.20;;;20.10;68.10;;;;;;5147474;27;20078;-78
2022/07/22 01:00:27;;;;;;;5.93;3.47;;;20.00;69.80;;;;;;5157385;27;20107;-77
2022/07/22 01:02:53;;;;;;;4.07;3.67;;;20.00;69.90;;;;;;5155741;27;20030;-69
2022/07/22 01:05:19;;;;;;;7.20;3.78;;;20.00;70.70;;;;;;5157269;27;20045;-77
2022/07/22 01:07:45;;;;;;;4.28;3.22;;;20.00;69.90;;;;;;5156017;27;20390;-69
2022/07/22 01:10:10;;;;;;;4.38;3.08;;;19.90;70.60;;;;;;5156221;27;20102;-71
2022/07/22 01:12:37;;;;;;;8.20;3.95;;;19.80;70.30;;;;;;5155714;27;20035;-70
2022/07/22 01:15:03;;;;;;;5.45;3.47;;;19.80;70.80;;;;;;5157159;27;20015;-77
2022/07/22 01:17:29;;;;;;;5.68;3.13;;;19.80;71.10;;;;;;5156835;27;20026;-70
2022/07/22 01:20:03;;;;;;;7.40;3.67;;;19.70;72.00;;;;;;5157005;27;20011;-76
2022/07/22 01:22:31;;;;;;;4.65;4.07;;;19.60;72.00;;;;;;5155592;27;20070;-70
2022/07/22 01:24:56;;;;;;;4.25;3.85;;;19.60;71.40;;;;;;5156395;27;20061;-78
2022/07/22 01:27:22;;;;;;;5.50;4.05;;;19.50;71.70;;;;;;5155074;27;20053;-77
2022/07/22 01:29:48;;;;;;;4.75;3.88;;;19.50;72.20;;;;;;5128643;27;20022;-77
2022/07/22 01:32:13;;;;;;;6.15;3.85;;;19.50;71.80;;;;;;5048597;28;20120;-70
2022/07/22 01:34:39;;;;;;;6.93;4.38;;;19.60;73.30;;;;;;5049783;28;20390;-75
2022/07/22 01:37:05;;;;;;;6.35;4.07;;;19.50;72.40;;;;;;5049729;28;20025;-70
2022/07/22 01:39:30;;;;;;;7.20;4.22;;;19.60;72.50;;;;;;5049291;28;20104;-77
2022/07/22 01:41:56;;;;;;;5.10;3.85;;;19.60;72.70;;;;;;5048481;28;20029;-70
2022/07/22 01:44:22;;;;;;;7.45;4.00;;;19.60;74.10;;;;;;5050447;28;20040;-77
2022/07/22 01:46:49;;;;;;;4.32;3.60;;;19.50;75.60;;;;;;5049524;28;20461;-70
2022/07/22 01:49:16;;;;;;;4.63;3.67;;;19.50;76.60;;;;;;5049434;28;20021;-70
2022/07/22 01:51:41;;;;;;;7.93;5.57;;;19.40;76.50;;;;;;5048234;28;20029;-69
2022/07/22 01:54:07;;;;;;;6.07;4.18;;;19.30;78.60;;;;;;5048080;28;20478;-71
2022/07/22 01:56:33;;;;;;;14.93;4.20;;;19.10;81.20;;;;;;5048106;28;20025;-78
2022/07/22 01:58:59;;;;;;;8.10;4.47;;;19.00;80.50;;;;;;5048598;28;20033;-78
2022/07/22 02:01:24;;;;;;;4.28;3.63;;;18.90;80.80;;;;;;5051371;28;20040;-78
2022/07/22 02:03:51;;;;;;;5.22;4.18;;;18.80;81.80;;;;;;5050027;28;20133;-71
2022/07/22 02:06:16;;;;;;;4.50;4.07;;;18.80;81.40;;;;;;5051458;28;20021;-70
2022/07/22 02:08:42;;;;;;;4.30;3.90;;;18.70;83.30;;;;;;5050083;28;20027;-71
2022/07/22 02:11:08;;;;;;;5.35;4.65;;;18.70;85.10;;;;;;5050003;28;20406;-76
2022/07/22 02:13:33;;;;;;;5.85;4.22;;;18.60;85.80;;;;;;5051185;28;20496;-70
2022/07/22 02:15:59;;;;;;;4.90;4.45;;;18.60;87.00;;;;;;5051183;28;20115;-70
2022/07/22 02:18:25;;;;;;;7.80;4.50;;;18.50;87.70;;;;;;5049785;28;20078;-72
2022/07/22 02:20:51;;;;;;;4.28;3.92;;;18.50;88.70;;;;;;5051106;28;20025;-77
2022/07/22 02:23:17;;;;;;;5.85;4.57;;;18.30;89.20;;;;;;5051171;28;20048;-77
2022/07/22 02:25:43;;;;;;;4.45;4.05;;;18.20;90.40;;;;;;5050895;28;20018;-70
2022/07/22 02:28:09;;;;;;;5.78;4.13;;;18.10;91.60;;;;;;5051036;28;20116;-71
2022/07/22 02:30:34;;;;;;;6.00;4.30;;;18.10;93.30;;;;;;5049621;28;20443;-70
2022/07/22 02:33:00;;;;;;;7.10;4.32;;;18.10;93.40;;;;;;5049842;28;20116;-76
2022/07/22 02:35:26;;;;;;;6.50;4.13;;;18.00;93.00;;;;;;5050812;28;20056;-76
2022/07/22 02:37:52;;;;;;;6.70;4.72;;;18.00;92.90;;;;;;5049815;28;20048;-76
2022/07/22 02:40:18;;;;;;;5.53;4.93;;;17.90;95.80;;;;;;5049637;28;20065;-73
2022/07/22 02:42:44;;;;;;;5.70;4.82;;;17.70;98.10;;;;;;5050787;28;20025;-69
2022/07/22 02:45:10;;;;;;;7.82;4.40;;;17.80;99.30;;;;;;5050940;28;20021;-71
2022/07/22 02:47:44;;;;;;;7.22;4.40;;;17.60;99.90;;;;;;5050812;28;20098;-76
2022/07/22 02:50:09;;;;;;;5.35;4.43;;;17.60;99.90;;;;;;5049406;28;20021;-70
2022/07/22 02:52:35;;;;;;;5.20;4.57;;;17.60;99.90;;;;;;5049343;28;20031;-76
2022/07/22 02:55:00;;;;;;;6.05;4.18;;;17.50;99.90;;;;;;5050766;28;20382;-77
2022/07/22 02:57:26;;;;;;;8.68;4.60;;;17.50;99.90;;;;;;5050640;28;20017;-77
2022/07/22 02:59:52;;;;;;;5.18;4.30;;;17.50;99.90;;;;;;5049178;28;20017;-71
2022/07/22 03:02:17;;;;;;;14.05;4.50;;;17.40;99.90;;;;;;5049284;28;20032;-76
2022/07/22 03:04:43;;;;;;;4.70;4.30;;;17.50;99.90;;;;;;5050288;28;20432;-70
2022/07/22 03:07:09;;;;;;;6.00;4.25;;;17.50;99.90;;;;;;5050320;28;20017;-71
2022/07/22 03:09:34;;;;;;;8.20;4.60;;;17.50;99.90;;;;;;5050393;28;20037;-71
2022/07/22 03:12:00;;;;;;;9.35;3.90;;;17.50;99.90;;;;;;5050481;28;20100;-69
2022/07/22 03:14:26;;;;;;;8.10;5.03;;;17.30;99.90;;;;;;5050307;28;20044;-70
2022/07/22 03:16:51;;;;;;;4.40;4.05;;;17.30;99.90;;;;;;5050464;28;20025;-70
2022/07/22 03:19:17;;;;;;;7.00;4.05;;;17.20;99.90;;;;;;5050528;28;20017;-70
2022/07/22 03:21:43;;;;;;;6.55;4.45;;;17.20;99.90;;;;;;5050127;28;20109;-76
2022/07/22 03:24:08;;;;;;;5.10;4.35;;;17.10;99.90;;;;;;5050269;28;20036;-70
2022/07/22 03:26:34;;;;;;;6.78;4.05;;;17.00;99.90;;;;;;5050121;28;20502;-69
2022/07/22 03:29:00;;;;;;;6.90;4.72;;;17.00;99.90;;;;;;5050190;28;20027;-70
2022/07/22 03:31:26;;;;;;;6.68;4.68;;;17.10;99.90;;;;;;5049907;28;20064;-71
2022/07/22 03:33:51;;;;;;;6.13;4.78;;;17.20;99.90;;;;;;5052124;28;20021;-76
2022/07/22 03:36:17;;;;;;;6.60;4.82;;;17.20;99.90;;;;;;5053475;28;20087;-70
2022/07/22 03:38:42;;;;;;;5.78;5.10;;;17.30;99.90;;;;;;5053667;28;20013;-70
2022/07/22 03:41:08;;;;;;;7.35;4.65;;;17.40;99.90;;;;;;5053306;28;20043;-71
2022/07/22 03:43:34;;;;;;;6.60;4.82;;;17.50;99.90;;;;;;5053651;28;20044;-73
2022/07/22 03:46:00;;;;;;;11.25;6.00;;;17.40;99.90;;;;;;5053446;28;20437;-71
2022/07/22 03:48:26;;;;;;;8.77;5.82;;;17.50;99.90;;;;;;5053549;28;20474;-77
2022/07/22 03:50:52;;;;;;;7.53;5.53;;;17.50;99.90;;;;;;5053350;28;20427;-70
2022/07/22 03:53:18;;;;;;;9.40;5.57;;;17.60;99.90;;;;;;5053590;28;20018;-71
2022/07/22 03:55:43;;;;;;;6.20;5.05;;;17.60;99.90;;;;;;5053377;28;20032;-70
2022/07/22 03:58:09;;;;;;;5.40;4.70;;;17.70;99.90;;;;;;5053401;28;20032;-71
2022/07/22 04:00:35;;;;;;;8.13;5.15;;;17.90;99.90;;;;;;5051968;28;20446;-71
2022/07/22 04:03:00;;;;;;;5.55;4.93;;;18.10;99.90;;;;;;5053247;28;20036;-77
2022/07/22 04:05:26;;;;;;;5.72;4.35;;;18.30;99.90;;;;;;5053123;28;20379;-77
2022/07/22 04:07:52;;;;;;;7.55;4.93;;;18.50;98.00;;;;;;5051904;28;20058;-78
2022/07/22 04:10:17;;;;;;;7.43;5.18;;;18.60;95.30;;;;;;5053035;28;20482;-71
2022/07/22 04:12:43;;;;;;;5.18;4.43;;;18.70;93.10;;;;;;5052957;28;20032;-69
2022/07/22 04:15:09;;;;;;;6.00;4.68;;;18.70;92.70;;;;;;5053178;28;20108;-77
2022/07/22 04:17:35;;;;;;;6.30;4.75;;;18.90;92.70;;;;;;5052989;28;20082;-70
2022/07/22 04:20:01;;;;;;;6.55;4.70;;;19.10;91.80;;;;;;5051405;28;20025;-76
2022/07/22 04:22:27;;;;;;;6.50;4.93;;;19.30;87.90;;;;;;5051744;28;20540;-77
2022/07/22 04:24:53;;;;;;;9.77;5.03;;;19.40;89.10;;;;;;5052963;28;20064;-70
2022/07/22 04:27:18;;;;;;;4.78;4.07;;;19.50;87.90;;;;;;5052904;28;20048;-77
2022/07/22 04:29:44;;;;;;;6.18;4.75;;;19.60;87.90;;;;;;5051541;28;20434;-77
2022/07/22 04:32:10;;;;;;;6.75;5.75;;;19.60;89.30;;;;;;5052723;28;20029;-70
2022/07/22 04:34:36;;;;;;;8.23;5.82;;;19.80;91.10;;;;;;5052739;28;20474;-71
2022/07/22 04:37:02;;;;;;;7.30;5.80;;;19.90;90.50;;;;;;5052596;28;20033;-70
2022/07/22 04:39:27;;;;;;;9.25;6.05;;;20.00;91.60;;;;;;5052817;28;20025;-78
2022/07/22 04:41:53;;;;;;;9.57;6.63;;;20.20;90.00;;;;;;5051326;28;20051;-78
2022/07/22 04:44:19;;;;;;;6.68;5.38;;;20.30;91.30;;;;;;5051841;28;20085;-71
2022/07/22 04:46:44;;;;;;;13.90;7.53;;;20.40;90.00;;;;;;5052077;28;20029;-77
2022/07/22 04:49:10;;;;;;;10.68;7.22;;;20.40;90.70;;;;;;5052738;28;20022;-71
2022/07/22 04:51:36;;;;;;;19.63;9.43;;;20.40;92.30;;;;;;5052547;28;20065;-70
2022/07/22 04:54:01;;;;;;;20.27;8.93;;;20.40;92.80;;;;;;5052388;28;20021;-77
2022/07/22 04:56:27;;;;;;;15.95;8.75;;;20.50;92.80;;;;;;5052393;28;20118;-70
2022/07/22 04:58:53;;;;;;;19.92;9.93;;;20.40;91.50;;;;;;5052430;28;20013;-70
2022/07/22 05:01:18;;;;;;;21.40;10.88;;;20.50;90.60;;;;;;5050876;28;20108;-70
2022/07/22 05:03:44;;;;;;;15.70;8.50;;;20.40;90.40;;;;;;5052152;28;20090;-75
2022/07/22 05:06:10;;;;;;;11.85;6.65;;;20.50;90.80;;;;;;5051010;28;20077;-77
2022/07/22 05:08:36;;;;;;;10.32;7.55;;;20.50;90.10;;;;;;5052383;28;20047;-70
2022/07/22 05:11:02;;;;;;;14.65;7.68;;;20.60;91.80;;;;;;5050940;28;20107;-70
2022/07/22 05:13:27;;;;;;;19.35;10.75;;;20.70;94.00;;;;;;5051167;28;20017;-71
2022/07/22 05:15:53;;;;;;;17.33;10.50;;;20.70;94.20;;;;;;5051999;28;20533;-77
2022/07/22 05:18:19;;;;;;;16.83;9.70;;;20.70;96.40;;;;;;5052162;28;20108;-71
2022/07/22 05:20:45;;;;;;;20.58;10.27;;;20.90;95.70;;;;;;5050722;28;20064;-77
2022/07/22 05:23:11;;;;;;;16.50;9.73;;;21.00;97.60;;;;;;5049116;28;20045;-70
2022/07/22 05:25:36;;;;;;;16.90;9.27;;;21.20;95.70;;;;;;5050648;28;20025;-71
2022/07/22 05:28:02;;;;;;;11.15;9.80;;;21.20;91.60;;;;;;5051727;28;20025;-78
2022/07/22 05:30:28;;;;;;;14.73;9.75;;;21.30;89.50;;;;;;5052384;27;20081;-77
2022/07/22 05:32:54;;;;;;;14.25;10.25;;;21.30;86.80;;;;;;5059479;27;20017;-78
2022/07/22 05:35:20;;;;;;;12.82;9.18;;;21.40;88.00;;;;;;5113141;27;20413;-77
2022/07/22 05:37:46;;;;;;;16.45;10.27;;;21.30;87.80;;;;;;5098047;27;20029;-77
2022/07/22 05:40:12;;;;;;;14.32;9.90;;;21.30;89.00;;;;;;5098083;27;20050;-70
2022/07/22 05:42:38;;;;;;;15.57;11.00;;;21.30;88.10;;;;;;5127096;27;20073;-77
2022/07/22 05:45:04;;;;;;;15.00;9.52;;;21.30;89.60;;;;;;5111875;27;20490;-78
2022/07/22 05:47:30;;;;;;;15.15;10.38;;;21.20;91.10;;;;;;5102096;27;20023;-78
2022/07/22 05:49:55;;;;;;;13.68;9.23;;;21.20;91.60;;;;;;5084394;27;20371;-77
2022/07/22 05:52:21;;;;;;;12.70;9.52;;;21.30;91.30;;;;;;5051495;28;20145;-77
2022/07/22 05:54:47;;;;;;;15.35;9.90;;;21.40;88.50;;;;;;5126388;27;20030;-76
2022/07/22 05:57:13;;;;;;;13.05;10.23;;;21.40;91.00;;;;;;5155891;27;20046;-70
2022/07/22 05:59:38;;;;;;;13.25;10.68;;;21.60;93.30;;;;;;5156331;27;20475;-78
2022/07/22 06:02:05;;;;;;;25.15;11.23;;;21.80;89.60;;;;;;5156100;27;20023;-77
2022/07/22 06:04:31;;;;;;;17.83;10.75;;;21.80;85.10;;;;;;5154987;27;20037;-70
2022/07/22 06:06:57;;;;;;;13.32;10.18;;;22.00;85.10;;;;;;5156592;27;20038;-76
2022/07/22 06:09:23;;;;;;;16.10;11.27;;;22.20;84.10;;;;;;5156315;27;20365;-71
2022/07/22 06:11:48;;;;;;;17.27;10.55;;;22.30;83.00;;;;;;5156198;27;20023;-76
2022/07/22 06:14:14;;;;;;;11.32;10.02;;;22.50;83.00;;;;;;5154855;27;20019;-72
2022/07/22 06:16:39;;;;;;;12.95;10.45;;;22.70;80.60;;;;;;5153933;27;20018;-76
2022/07/22 06:19:05;;;;;;;18.38;11.15;;;22.90;81.00;;;;;;5060303;27;20017;-76
2022/07/22 06:21:31;;;;;;;16.17;10.95;;;22.90;79.60;;;;;;5049116;27;20045;-76
2022/07/22 06:23:56;;;;;;;13.43;11.25;;;23.00;78.90;;;;;;5079419;27;20054;-70
2022/07/22 06:26:22;;;;;;;15.32;11.52;;;23.20;77.90;;;;;;5114152;27;20613;-76
2022/07/22 06:28:48;;;;;;;14.30;11.95;;;23.30;78.90;;;;;;5150214;27;20399;-71
2022/07/22 06:31:13;;;;;;;18.88;11.15;;;23.40;77.60;;;;;;5119542;27;20045;-71
2022/07/22 06:33:39;;;;;;;16.92;12.45;;;23.60;77.40;;;;;;5153859;27;20031;-71
2022/07/22 06:36:05;;;;;;;14.38;10.90;;;23.80;75.90;;;;;;5094674;27;20025;-71
2022/07/22 06:38:31;;;;;;;13.90;10.77;;;24.10;75.80;;;;;;5124762;27;20041;-77
2022/07/22 06:40:57;;;;;;;13.80;10.85;;;24.30;73.30;;;;;;5089761;27;20025;-77
2022/07/22 06:43:23;;;;;;;15.88;11.90;;;24.60;73.30;;;;;;5088369;27;20050;-77
2022/07/22 06:45:48;;;;;;;15.80;10.32;;;24.50;70.90;;;;;;5083281;27;20064;-77
2022/07/22 06:48:14;;;;;;;14.95;10.65;;;24.60;70.00;;;;;;5053012;27;20599;-77
2022/07/22 06:50:40;;;;;;;13.88;11.40;;;24.50;73.10;;;;;;5115396;27;20127;-77
2022/07/22 06:53:06;;;;;;;17.83;12.45;;;24.70;71.40;;;;;;5074103;27;20398;-77
2022/07/22 06:55:32;;;;;;;14.50;11.52;;;24.60;71.90;;;;;;5066645;27;20039;-78
2022/07/22 06:57:58;;;;;;;17.55;12.90;;;24.80;73.00;;;;;;5115515;27;20563;-77
2022/07/22 07:00:23;;;;;;;18.75;13.05;;;24.90;73.60;;;;;;5082516;27;20045;-72
2022/07/22 07:02:49;;;;;;;22.52;14.18;;;25.10;71.60;;;;;;5153558;27;20123;-78
2022/07/22 07:05:15;;;;;;;17.90;12.63;;;25.30;70.00;;;;;;5153083;27;20069;-72
2022/07/22 07:07:40;;;;;;;14.80;12.88;;;25.40;71.10;;;;;;5103369;27;20551;-72
2022/07/22 07:10:09;;;;;;;13.55;12.15;;;25.30;67.80;;;;;;5087840;27;20550;-72
2022/07/22 07:12:35;;;;;;;18.27;12.02;;;25.50;67.90;;;;;;5120238;27;20030;-77
2022/07/22 07:15:01;;;;;;;14.02;11.43;;;25.70;66.80;;;;;;5065210;27;20041;-77
2022/07/22 07:17:26;;;;;;;15.30;12.95;;;25.50;66.40;;;;;;5153338;27;20083;-77
2022/07/22 07:19:52;;;;;;;14.02;11.88;;;25.50;67.10;;;;;;5099987;27;20086;-77
2022/07/22 07:22:18;;;;;;;15.13;13.38;;;25.60;67.10;;;;;;5124298;27;20447;-77
2022/07/22 07:24:43;;;;;;;18.70;14.13;;;25.80;67.20;;;;;;5153644;27;20039;-77
2022/07/22 07:27:09;;;;;;;17.33;13.95;;;25.90;66.00;;;;;;5130936;27;20418;-77
2022/07/22 07:29:35;;;;;;;19.85;13.68;;;26.10;66.90;;;;;;5143737;27;20110;-78
2022/07/22 07:32:01;;;;;;;17.58;13.25;;;26.30;68.70;;;;;;5152842;27;20015;-78
2022/07/22 07:34:27;;;;;;;15.95;13.65;;;26.40;66.10;;;;;;5153121;27;20031;-77
2022/07/22 07:36:53;;;;;;;19.98;14.52;;;26.40;65.00;;;;;;5152364;27;20023;-77
2022/07/22 07:39:18;;;;;;;16.27;12.75;;;26.70;65.20;;;;;;5153207;27;20038;-77
2022/07/22 07:41:44;;;;;;;19.88;14.63;;;26.70;64.20;;;;;;5059659;27;20013;-78
2022/07/22 07:44:10;;;;;;;15.65;13.43;;;26.50;65.70;;;;;;5083025;27;20033;-77
2022/07/22 07:46:35;;;;;;;17.20;12.68;;;26.30;65.80;;;;;;5140092;27;20380;-77
2022/07/22 07:49:01;;;;;;;19.27;12.82;;;26.50;67.40;;;;;;5116706;27;20388;-78
2022/07/22 07:51:27;;;;;;;22.70;14.20;;;26.80;67.70;;;;;;5152159;27;20364;-77
2022/07/22 07:53:53;;;;;;;17.73;13.93;;;27.00;66.60;;;;;;5078250;27;20032;-77
2022/07/22 07:56:18;;;;;;;18.63;13.88;;;27.30;65.00;;;;;;5058985;27;20021;-72
2022/07/22 07:58:44;;;;;;;16.67;13.48;;;27.30;65.50;;;;;;5075839;27;20033;-77
2022/07/22 08:01:10;;;;;;;23.23;13.30;;;27.50;64.70;;;;;;5149855;27;20384;-72
2022/07/22 08:03:36;;;;;;;13.93;11.70;;;27.50;62.90;;;;;;5086625;27;20037;-72
2022/07/22 08:06:01;;;;;;;19.20;13.63;;;27.30;65.00;;;;;;5133262;27;20481;-77
2022/07/22 08:08:27;;;;;;;13.90;11.90;;;27.10;64.00;;;;;;5055991;28;20017;-73
2022/07/22 08:10:53;;;;;;;14.40;12.93;;;27.30;65.60;;;;;;5149958;27;20026;-77
2022/07/22 08:13:18;;;;;;;16.73;12.75;;;27.20;64.50;;;;;;5088314;27;20479;-77
2022/07/22 08:15:44;;;;;;;16.25;13.43;;;27.40;66.10;;;;;;5149670;27;20496;-73
2022/07/22 08:18:10;;;;;;;15.80;12.38;;;27.50;65.60;;;;;;5091062;27;20475;-77
2022/07/22 08:20:36;;;;;;;17.35;13.02;;;27.60;64.20;;;;;;5055172;28;20497;-76
2022/07/22 08:23:01;;;;;;;15.48;12.40;;;27.40;62.90;;;;;;5050289;28;20085;-71
2022/07/22 08:25:27;;;;;;;15.52;13.30;;;27.50;62.70;;;;;;5053271;28;20108;-78
2022/07/22 08:27:53;;;;;;;19.88;13.43;;;27.30;62.90;;;;;;5053102;28;20029;-72
2022/07/22 08:30:19;;;;;;;17.98;12.68;;;26.90;65.20;;;;;;5052937;28;20100;-78
2022/07/22 08:32:45;;;;;;;14.25;12.50;;;26.70;67.70;;;;;;5053039;28;20389;-77
2022/07/22 08:35:11;;;;;;;17.10;13.60;;;26.90;67.30;;;;;;5051307;28;20025;-76
2022/07/22 08:37:37;;;;;;;16.77;13.23;;;27.20;65.90;;;;;;5052674;28;20036;-76
2022/07/22 08:40:06;;;;;;;15.57;13.20;;;27.50;67.40;;;;;;5052777;28;20025;-72
2022/07/22 08:42:37;;;;;;;14.50;12.38;;;27.50;64.20;;;;;;5051505;28;20039;-72
2022/07/22 08:45:03;;;;;;;20.70;13.00;;;27.50;65.10;;;;;;5052585;28;20033;-77
2022/07/22 08:47:29;;;;;;;18.15;14.05;;;27.50;63.80;;;;;;5051912;28;20558;-77
2022/07/22 08:49:55;;;;;;;15.27;13.10;;;27.40;63.20;;;;;;5051552;28;20498;-77
2022/07/22 08:52:20;;;;;;;17.48;12.57;;;27.40;66.10;;;;;;5050491;28;20023;-72
2022/07/22 08:54:46;;;;;;;15.90;13.55;;;27.50;64.30;;;;;;5052456;28;20044;-77
2022/07/22 08:57:12;;;;;;;17.65;13.15;;;27.80;64.00;;;;;;5052455;28;20098;-72
2022/07/22 08:59:56;;;;;;;15.57;13.05;;;27.80;64.00;;;;;;5052226;28;20047;-77
2022/07/22 09:02:24;;;;;;;19.90;13.85;;;27.80;64.10;;;;;;5052507;28;20017;-77
2022/07/22 09:04:58;;;;;;;15.77;13.40;;;28.00;64.90;;;;;;5052220;28;20036;-72
2022/07/22 09:07:29;;;;;;;20.10;14.05;;;28.10;63.90;;;;;;5052298;28;20024;-76
2022/07/22 09:09:56;;;;;;;18.58;13.98;;;28.10;62.90;;;;;;5052498;28;20027;-72
2022/07/22 09:12:22;;;;;;;16.02;12.75;;;28.20;63.20;;;;;;5052326;28;20025;-72
2022/07/22 09:14:52;;;;;;;17.20;13.00;;;28.70;62.20;;;;;;5052169;28;20025;-72
2022/07/22 09:17:34;;;;;;;14.75;13.25;;;29.10;62.60;;;;;;5051994;28;20021;-77
2022/07/22 09:20:00;;;;;;;14.63;13.10;;;29.20;61.40;;;;;;5052074;28;20427;-72
2022/07/22 09:22:35;;;;;;;15.45;12.27;;;29.30;58.90;;;;;;5052016;28;20049;-72
2022/07/22 09:25:19;;;;;;;15.35;12.85;;;29.20;58.00;;;;;;5051921;28;20033;-77
2022/07/22 09:27:46;;;;;;;14.25;11.55;;;29.30;59.80;;;;;;5051823;28;20021;-72
2022/07/22 09:30:14;;;;;;;14.50;12.88;;;29.30;58.80;;;;;;5051920;28;20017;-77
2022/07/22 09:32:44;;;;;;;13.57;11.68;;;29.30;59.10;;;;;;5051437;28;20104;-77
2022/07/22 09:35:10;;;;;;;13.90;11.57;;;29.40;60.80;;;;;;5051884;28;20021;-72
2022/07/22 09:37:57;;;;;;;15.52;12.75;;;29.40;58.20;;;;;;5051813;28;20057;-72
2022/07/22 09:40:28;;;;;;;13.77;12.20;;;29.40;59.00;;;;;;5050335;28;20550;-77
2022/07/22 09:42:57;;;;;;;16.05;10.88;;;29.60;58.70;;;;;;5051689;28;20082;-72
2022/07/22 09:45:25;;;;;;;12.50;11.20;;;29.60;58.40;;;;;;5051568;28;20412;-73
2022/07/22 09:47:51;;;;;;;12.23;10.80;;;29.60;56.80;;;;;;5051716;28;20025;-72
2022/07/22 09:50:22;;;;;;;15.65;11.63;;;29.80;57.70;;;;;;5051756;28;20024;-76
2022/07/22 09:52:50;;;;;;;12.57;11.27;;;29.60;56.50;;;;;;5050242;28;20021;-76
2022/07/22 09:55:18;;;;;;;12.95;10.90;;;29.60;56.40;;;;;;5051525;28;20025;-77
2022/07/22 09:57:45;;;;;;;12.25;10.88;;;29.60;55.90;;;;;;5051631;28;20028;-72
2022/07/22 10:00:12;;;;;;;12.40;11.15;;;29.70;56.80;;;;;;5051348;28;20028;-72
2022/07/22 10:02:53;;;;;;;10.77;9.55;;;29.50;56.40;;;;;;5051780;28;20100;-77
2022/07/22 10:05:22;;;;;;;11.68;10.43;;;29.60;57.20;;;;;;5051572;28;20124;-77
2022/07/22 10:07:49;;;;;;;11.02;9.93;;;29.80;55.70;;;;;;5051518;28;20462;-76
2022/07/22 10:10:23;;;;;;;11.15;9.68;;;29.90;55.20;;;;;;5051342;28;20032;-72
2022/07/22 10:12:51;;;;;;;12.85;10.70;;;30.30;56.80;;;;;;5050280;28;20474;-76
2022/07/22 10:15:17;;;;;;;11.05;10.00;;;30.00;55.30;;;;;;5051292;28;20032;-73
2022/07/22 10:17:47;;;;;;;11.38;9.88;;;29.90;53.90;;;;;;5050053;28;20032;-72
2022/07/22 10:20:21;;;;;;;11.07;9.55;;;29.90;54.30;;;;;;5051254;28;20047;-72
2022/07/22 10:22:58;;;;;;;11.68;9.63;;;30.10;55.10;;;;;;5050107;28;20132;-76
2022/07/22 10:25:26;;;;;;;11.00;9.90;;;30.20;54.50;;;;;;5049897;28;20379;-72
2022/07/22 10:27:52;;;;;;;10.82;9.82;;;30.50;54.50;;;;;;5051269;28;20074;-72
2022/07/22 10:30:21;;;;;;;11.65;9.63;;;30.60;54.40;;;;;;5051202;28;20029;-72
2022/07/22 10:33:03;;;;;;;10.73;9.43;;;30.30;53.70;;;;;;5051092;28;20120;-77
2022/07/22 10:35:29;;;;;;;;;;;30.00;54.40;;;;;;5051635;28;20029;-71
2022/07/22 10:37:57;;;;;;;9.95;8.48;;;30.10;54.60;;;;;;5051184;28;19909;-75
2022/07/22 10:40:26;;;;;;;13.70;10.68;;;30.20;54.60;;;;;;5051047;28;20013;-72
2022/07/22 10:43:00;;;;;;;12.82;9.30;;;30.30;53.40;;;;;;5050885;28;20131;-72
2022/07/22 10:45:52;;;;;;;10.77;9.55;;;30.30;52.00;;;;;;5049766;28;20072;-72
2022/07/22 10:48:47;;;;;;;9.80;8.98;;;30.30;52.40;;;;;;5044566;28;20045;-72
2022/07/22 10:51:16;;;;;;;10.07;9.07;;;30.10;51.80;;;;;;5043083;28;20052;-76
2022/07/22 10:53:58;;;;;;;11.00;9.75;;;30.00;53.20;;;;;;5050990;28;20017;-72
2022/07/22 10:56:25;;;;;;;;;;;30.00;52.70;;;;;;5049948;28;20118;-77
2022/07/22 10:59:12;;;;;;;11.85;8.88;;;30.20;53.40;;;;;;5050850;28;19952;-76
2022/07/22 11:01:43;;;;;;;9.38;8.48;;;30.10;51.10;;;;;;5050670;27;20026;-72
2022/07/22 11:04:14;;;;;;;12.70;8.63;;;30.10;50.50;;;;;;5050775;28;20033;-72
2022/07/22 11:06:41;;;;;;;10.30;8.32;;;30.50;51.10;;;;;;5049213;28;20276;-73
2022/07/22 11:09:09;;;;;;;9.38;8.48;;;30.80;51.30;;;;;;5050680;28;20076;-77
2022/07/22 11:11:42;;;;;;;10.70;8.52;;;30.90;51.10;;;;;;5049347;28;20021;-72
2022/07/22 11:14:12;;;;;;;11.40;8.73;;;31.20;51.30;;;;;;5050729;28;20028;-76
2022/07/22 11:16:39;;;;;;;11.60;9.90;;;31.30;50.40;;;;;;5050480;28;20489;-77
2022/07/22 11:19:04;;;;;;;9.73;8.77;;;31.10;50.50;;;;;;5050508;28;20108;-77
2022/07/22 11:21:32;;;;;;;13.30;9.38;;;31.00;50.50;;;;;;5050241;28;20080;-72
2022/07/22 11:24:01;;;;;;;12.98;8.88;;;30.70;49.60;;;;;;5050497;28;20040;-72
2022/07/22 11:26:50;;;;;;;9.77;8.85;;;30.60;50.80;;;;;;5050268;28;20021;-77
2022/07/22 11:29:25;;;;;;;9.80;8.80;;;30.30;51.40;;;;;;5049187;28;20037;-72
2022/07/22 11:31:51;;;;;;;14.55;8.43;;;30.40;50.50;;;;;;5048946;28;20021;-77
2022/07/22 11:34:17;;;;;;;8.63;7.70;;;30.30;52.00;;;;;;5049161;28;20401;-76
2022/07/22 11:36:45;;;;;;;16.08;10.05;;;30.20;50.50;;;;;;5050303;28;20077;-72
2022/07/22 11:39:13;;;;;;;8.25;7.55;;;30.20;51.80;;;;;;5048941;28;20047;-77
2022/07/22 11:41:39;;;;;;;10.05;8.93;;;30.20;51.60;;;;;;5050117;28;20021;-72
2022/07/22 11:44:06;;;;;;;13.27;9.27;;;30.20;52.00;;;;;;5050044;28;20158;-72
2022/07/22 11:46:41;;;;;;;10.07;9.05;;;30.50;53.00;;;;;;5049978;28;20036;-77
2022/07/22 11:49:08;;;;;;;10.32;8.75;;;30.80;52.50;;;;;;5050223;28;20021;-72
2022/07/22 11:51:36;;;;;;;10.50;8.27;;;31.10;52.80;;;;;;5048812;28;20036;-77
2022/07/22 11:54:03;;;;;;;8.65;7.85;;;31.20;52.60;;;;;;5049474;28;20048;-77
2022/07/22 11:56:30;;;;;;;11.57;9.60;;;31.50;50.70;;;;;;5053504;28;20028;-77
2022/07/22 11:58:56;;;;;;;10.82;8.63;;;31.50;51.30;;;;;;5053565;28;20029;-72
2022/07/22 12:01:29;;;;;;;12.07;8.70;;;31.40;50.00;;;;;;5052101;28;20517;-72
2022/07/22 12:04:00;;;;;;;10.45;9.25;;;31.70;49.90;;;;;;5053398;28;20079;-76
2022/07/22 12:06:27;;;;;;;17.48;9.23;;;31.70;49.90;;;;;;5053957;28;20035;-76
2022/07/22 12:08:56;;;;;;;13.85;9.00;;;31.80;48.60;;;;;;5052114;28;20454;-72
2022/07/22 12:11:23;;;;;;;10.82;8.82;;;31.80;47.80;;;;;;5053216;28;20029;-72
2022/07/22 12:13:50;;;;;;;10.10;8.05;;;31.90;48.90;;;;;;5052024;28;20111;-72
2022/07/22 12:16:30;;;;;;;11.68;8.57;;;32.10;49.20;;;;;;5053275;28;20025;-76
2022/07/22 12:19:14;;;;;;;11.55;8.82;;;32.00;48.40;;;;;;5053040;28;20069;-77
2022/07/22 12:22:00;;;;;;;9.35;8.45;;;31.70;48.50;;;;;;5053259;28;20049;-76
2022/07/22 12:24:30;;;;;;;10.68;8.98;;;31.60;48.60;;;;;;5051925;28;20041;-72
2022/07/22 12:26:59;;;;;;;9.90;8.85;;;31.60;49.40;;;;;;5052993;28;20387;-75
2022/07/22 12:29:48;;;;;;;11.02;8.30;;;31.80;49.90;;;;;;5053235;28;20399;-76
2022/07/22 12:32:21;;;;;;;9.60;8.55;;;32.00;50.10;;;;;;5052957;28;20021;-75
2022/07/22 12:35:07;;;;;;;11.98;8.75;;;32.20;50.30;;;;;;5053053;28;20386;-76
2022/07/22 12:37:41;;;;;;;8.98;8.15;;;32.30;50.60;;;;;;5051524;28;20438;-77
2022/07/22 12:40:11;;;;;;;9.68;8.63;;;32.20;50.00;;;;;;5051851;28;20496;-72